Time;durP1;ratioP1;P1;durP2;ratioP2;P2;SDS_P1;SDS_P2;PMS_P1;PMS_P2;Temp;Humidity;BMP_temperature;BMP_pressure;BME280_temperature;BME280_humidity;BME280_pressure;Samples;Min_cycle;Max_cycle;Signal;HPM_P1;HPM_P2
2021/09/19 00:02:21;;;;;;;2.20;2.08;;;;;;;14.49;69.90;98773.23;1732926;82;21428;-65
2021/09/19 00:04:48;;;;;;;5.85;5.25;;;;;;;14.46;69.83;98775.26;1733992;81;22045;-65
2021/09/19 00:07:14;;;;;;;4.75;3.37;;;;;;;14.48;69.90;98774.67;1733024;81;22589;-66
2021/09/19 00:09:43;;;;;;;7.62;6.90;;;;;;;14.50;69.79;98774.08;1723628;82;21578;-65
2021/09/19 00:12:10;;;;;;;8.38;7.62;;;;;;;14.49;69.69;98781.66;1733900;82;21479;-65
2021/09/19 00:14:37;;;;;;;12.60;10.68;;;;;;;14.50;70.03;98775.40;1727378;81;21540;-67
2021/09/19 00:17:04;;;;;;;27.35;23.27;;;;;;;14.57;70.02;98780.16;1703269;82;22077;-66
2021/09/19 00:19:31;;;;;;;12.53;11.20;;;;;;;14.57;69.95;98778.84;1728934;82;20974;-65
2021/09/19 00:21:58;;;;;;;4.87;4.47;;;;;;;14.55;69.87;98779.39;1734218;82;21506;-66
2021/09/19 00:24:24;;;;;;;4.20;3.90;;;;;;;14.51;69.83;98781.06;1732142;82;21516;-66
2021/09/19 00:26:51;;;;;;;4.72;3.33;;;;;;;14.48;69.80;98787.89;1733672;82;21511;-65
2021/09/19 00:29:17;;;;;;;3.33;3.02;;;;;;;14.45;69.77;98782.36;1738459;82;22019;-65
2021/09/19 00:31:44;;;;;;;3.05;2.42;;;;;;;14.46;70.14;98780.55;1712073;83;21531;-68
2021/09/19 00:34:11;;;;;;;2.87;2.58;;;;;;;14.53;70.28;98779.16;1729294;81;21515;-68
2021/09/19 00:36:38;;;;;;;3.33;3.12;;;;;;;14.53;70.13;98773.86;1741956;82;21416;-68
2021/09/19 00:39:06;;;;;;;;;;;;;;;14.48;70.17;98773.34;1743903;82;21493;-67
2021/09/19 00:41:34;;;;;;;4.53;2.60;;;;;;;14.44;70.32;98779.33;1742201;80;21816;-67
2021/09/19 00:44:09;;;;;;;3.67;2.65;;;;;;;14.38;70.18;98777.97;1741896;81;21541;-67
2021/09/19 00:46:37;;;;;;;2.90;2.70;;;;;;;14.34;70.07;98785.77;1649928;85;21546;-67
2021/09/19 00:49:04;;;;;;;5.53;2.65;;;;;;;14.32;70.63;98789.00;1733507;82;26994;-66
2021/09/19 00:51:32;;;;;;;6.42;2.75;;;;;;;14.39;70.90;98791.58;1742386;82;20943;-66
2021/09/19 00:53:58;;;;;;;3.35;2.40;;;;;;;14.40;70.90;98791.92;1742149;81;21817;-67
2021/09/19 00:56:28;;;;;;;4.60;2.87;;;;;;;14.39;70.86;98793.36;1741934;80;21387;-68
2021/09/19 00:58:57;;;;;;;6.58;3.17;;;;;;;14.35;70.81;98792.77;1741184;80;21418;-67
2021/09/19 01:01:25;;;;;;;3.95;2.77;;;;;;;14.32;71.01;98791.64;1728979;81;21489;-68
2021/09/19 01:03:53;;;;;;;3.10;2.80;;;;;;;14.37;71.26;98792.17;1741721;80;21542;-67
2021/09/19 01:06:21;;;;;;;5.28;3.20;;;;;;;14.46;71.33;98789.80;1742091;80;21727;-67
2021/09/19 01:08:48;;;;;;;4.28;3.05;;;;;;;14.48;71.09;98783.44;1741801;81;21471;-67
2021/09/19 01:11:16;;;;;;;3.60;3.00;;;;;;;14.49;70.94;98782.98;1735813;82;21501;-66
2021/09/19 01:13:45;;;;;;;5.80;5.28;;;;;;;14.48;70.88;98778.14;1739685;82;21513;-68
2021/09/19 01:16:12;;;;;;;7.55;6.70;;;;;;;14.49;70.70;98786.47;1734944;82;21948;-67
2021/09/19 01:18:43;;;;;;;5.22;4.83;;;;;;;14.50;70.98;98778.05;1741461;82;21432;-67
2021/09/19 01:21:11;;;;;;;4.70;4.00;;;;;;;14.53;70.98;98777.34;1740075;82;21406;-68
2021/09/19 01:23:55;;;;;;;4.03;3.17;;;;;;;14.50;70.91;98778.88;1736034;82;21437;-69
2021/09/19 01:26:23;;;;;;;4.28;3.35;;;;;;;14.38;70.95;98766.56;1732986;82;21630;-68
2021/09/19 01:28:52;;;;;;;6.00;3.40;;;;;;;14.36;71.03;98773.77;1737769;81;21001;-69
2021/09/19 01:31:20;;;;;;;5.05;4.55;;;;;;;14.26;71.10;98782.84;1742665;81;21818;-68
2021/09/19 01:33:48;;;;;;;7.12;4.50;;;;;;;14.26;71.59;98784.16;1746750;81;21462;-68
2021/09/19 01:36:15;;;;;;;5.42;4.53;;;;;;;14.29;71.69;98783.92;1746655;81;21003;-69
2021/09/19 01:38:42;;;;;;;7.20;6.00;;;;;;;14.25;71.70;98785.10;1747022;81;21468;-68
2021/09/19 01:41:21;;;;;;;4.95;4.55;;;;;;;14.19;71.69;98782.42;1746694;81;21435;-66
2021/09/19 01:43:48;;;;;;;9.87;4.50;;;;;;;14.18;71.74;98779.42;1743015;81;22092;-65
2021/09/19 01:46:14;;;;;;;4.25;3.60;;;;;;;14.16;71.73;98776.50;1744450;81;21461;-69
2021/09/19 01:48:41;;;;;;;4.00;3.70;;;;;;;14.17;72.05;98783.50;1732543;81;21468;-68
2021/09/19 01:51:08;;;;;;;5.22;3.77;;;;;;;14.25;72.04;98781.63;1747051;81;21425;-68
2021/09/19 01:53:37;;;;;;;9.70;5.08;;;;;;;14.27;71.94;98781.87;1733556;81;21534;-68
2021/09/19 01:56:04;;;;;;;5.55;5.05;;;;;;;14.26;71.98;98776.69;1746971;81;21867;-67
2021/09/19 01:58:45;;;;;;;5.12;4.65;;;;;;;14.25;71.88;98774.53;1719517;81;21569;-66
2021/09/19 02:01:14;;;;;;;6.92;5.97;;;;;;;14.23;71.84;98771.16;1743865;81;20981;-68
2021/09/19 02:03:42;;;;;;;5.33;4.83;;;;;;;14.28;72.03;98774.31;1734244;81;21533;-68
2021/09/19 02:06:10;;;;;;;4.17;3.62;;;;;;;14.36;71.96;98772.44;1744942;81;21412;-67
2021/09/19 02:08:37;;;;;;;6.17;4.12;;;;;;;14.36;71.83;98774.59;1744000;81;21604;-68
2021/09/19 02:11:07;;;;;;;6.53;3.58;;;;;;;14.35;71.78;98767.64;1742721;81;21452;-68
2021/09/19 02:13:36;;;;;;;8.28;3.70;;;;;;;14.33;71.91;98775.30;1746793;81;21602;-69
2021/09/19 02:16:04;;;;;;;3.50;3.17;;;;;;;14.27;71.94;98767.33;1747259;81;21561;-68
2021/09/19 02:18:30;;;;;;;4.40;2.95;;;;;;;14.29;72.43;98772.52;1745878;81;21536;-67
2021/09/19 02:20:57;;;;;;;3.62;2.70;;;;;;;14.35;72.54;98768.96;1744130;81;21414;-68
2021/09/19 02:23:25;;;;;;;5.70;4.37;;;;;;;14.38;72.33;98764.75;1746219;81;28754;-67
2021/09/19 02:25:52;;;;;;;7.20;6.30;;;;;;;14.38;72.04;98762.11;1743049;81;21539;-68
2021/09/19 02:28:20;;;;;;;12.93;8.08;;;;;;;14.36;71.90;98762.70;1743615;81;21419;-68
2021/09/19 02:30:49;;;;;;;8.15;4.20;;;;;;;14.33;71.81;98762.91;1723350;82;21426;-69
2021/09/19 02:33:17;;;;;;;6.58;3.77;;;;;;;14.31;72.10;98759.53;1733634;82;21797;-67
2021/09/19 02:35:44;;;;;;;3.98;2.80;;;;;;;14.39;72.12;98758.52;1727897;82;21121;-68
2021/09/19 02:38:11;;;;;;;6.28;3.40;;;;;;;14.40;72.04;98768.13;1733474;81;20957;-68
2021/09/19 02:40:38;;;;;;;3.30;3.00;;;;;;;14.38;72.01;98768.72;1733393;82;20998;-68
2021/09/19 02:43:06;;;;;;;4.58;2.70;;;;;;;14.34;71.91;98769.91;1733678;82;21446;-69
2021/09/19 02:45:35;;;;;;;8.83;3.10;;;;;;;14.28;71.91;98763.74;1733472;82;21560;-66
2021/09/19 02:48:01;;;;;;;5.77;2.93;;;;;;;14.33;72.00;98758.11;1733732;82;21712;-67
2021/09/19 02:50:28;;;;;;;3.10;2.83;;;;;;;14.33;72.00;98758.11;1732261;82;22098;-69
2021/09/19 02:52:55;;;;;;;3.45;2.98;;;;;;;14.34;71.93;98762.45;1717591;82;21533;-67
2021/09/19 02:55:22;;;;;;;5.75;3.08;;;;;;;14.28;71.93;98762.88;1730850;82;21543;-67
2021/09/19 02:57:48;;;;;;;4.12;3.10;;;;;;;14.24;72.09;98769.34;1734327;82;21423;-68
2021/09/19 03:00:18;;;;;;;4.40;3.15;;;;;;;14.19;72.06;98767.88;1733545;81;20954;-68
2021/09/19 03:02:45;;;;;;;3.15;2.85;;;;;;;14.21;72.45;98762.48;1733913;82;21511;-68
2021/09/19 03:05:12;;;;;;;4.20;3.22;;;;;;;14.31;72.42;98761.34;1734210;82;21447;-70
2021/09/19 03:07:39;;;;;;;5.80;2.92;;;;;;;14.32;72.27;98763.05;1734136;82;21444;-67
2021/09/19 03:10:07;;;;;;;3.12;2.75;;;;;;;14.27;72.69;98759.39;1734079;82;21752;-67
2021/09/19 03:12:34;;;;;;;;;;;;;;;14.25;72.79;98764.44;1736336;82;21625;-66
2021/09/19 03:15:01;;;;;;;3.20;2.92;;;;;;;14.17;73.48;98765.83;1733938;82;20155;-68
2021/09/19 03:17:27;;;;;;;4.13;3.17;;;;;;;14.08;73.13;98766.48;1734258;82;21435;-67
2021/09/19 03:19:56;;;;;;;3.95;2.72;;;;;;;14.08;73.48;98766.97;1731943;82;21515;-66
2021/09/19 03:22:22;;;;;;;4.35;3.17;;;;;;;14.14;73.59;98775.28;1733761;81;22200;-67
2021/09/19 03:24:51;;;;;;;3.12;2.65;;;;;;;14.14;73.47;98775.77;1733937;82;21444;-68
2021/09/19 03:27:18;;;;;;;3.17;2.83;;;;;;;14.05;73.62;98771.14;1734332;82;21479;-67
2021/09/19 03:29:46;;;;;;;8.78;3.25;;;;;;;13.98;73.70;98775.55;1733731;82;21643;-68
2021/09/19 03:32:12;;;;;;;7.42;2.83;;;;;;;14.00;74.13;98772.31;1733899;82;20923;-68
2021/09/19 03:34:39;;;;;;;5.43;2.80;;;;;;;14.08;74.37;98770.93;1734052;82;22092;-66
2021/09/19 03:37:07;;;;;;;3.37;2.77;;;;;;;14.09;74.40;98773.47;1733761;82;21523;-66
2021/09/19 03:39:35;;;;;;;3.77;2.77;;;;;;;14.07;74.37;98777.16;1734079;82;21002;-67
2021/09/19 03:42:03;;;;;;;6.33;2.90;;;;;;;14.01;74.35;98775.80;1733747;82;21511;-66
2021/09/19 03:44:31;;;;;;;2.70;2.50;;;;;;;14.05;74.72;98774.61;1733892;82;21404;-65
2021/09/19 03:47:00;;;;;;;6.85;2.92;;;;;;;14.13;74.81;98773.61;1733853;82;21420;-66
2021/09/19 03:49:27;;;;;;;4.17;2.40;;;;;;;14.13;74.75;98768.33;1734057;82;21431;-66
2021/09/19 03:51:53;;;;;;;3.33;2.25;;;;;;;14.09;74.78;98771.28;1734107;82;21806;-66
2021/09/19 03:54:20;;;;;;;4.40;2.40;;;;;;;14.06;74.65;98764.91;1734176;82;21428;-66
2021/09/19 03:56:48;;;;;;;7.17;2.40;;;;;;;14.04;74.77;98768.98;1734002;82;21469;-66
2021/09/19 03:59:16;;;;;;;;;;;;;;;14.11;74.60;98764.95;1736404;82;21844;-66
2021/09/19 04:01:42;;;;;;;2.30;2.10;;;;;;;14.10;74.19;98768.53;1734078;81;20456;-67
2021/09/19 04:04:09;;;;;;;2.90;2.02;;;;;;;14.02;74.14;98772.21;1734008;82;21514;-67
2021/09/19 04:06:37;;;;;;;3.67;2.22;;;;;;;13.94;74.11;98770.11;1734220;82;21435;-67
2021/09/19 04:09:05;;;;;;;7.12;2.30;;;;;;;13.91;73.77;98765.03;1734013;82;21511;-66
2021/09/19 04:11:33;;;;;;;2.80;2.27;;;;;;;13.94;74.26;98764.83;1725663;81;21487;-66
2021/09/19 04:14:00;;;;;;;1.85;1.62;;;;;;;14.02;74.34;98765.12;1734200;81;21459;-64
2021/09/19 04:16:26;;;;;;;3.92;2.35;;;;;;;14.06;74.16;98764.91;1733794;81;21408;-65
2021/09/19 04:18:55;;;;;;;4.05;2.00;;;;;;;14.03;73.91;98767.27;1733857;82;21594;-65
2021/09/19 04:21:21;;;;;;;2.40;2.20;;;;;;;13.99;74.03;98775.06;1733436;81;21444;-66
2021/09/19 04:23:49;;;;;;;4.30;1.98;;;;;;;13.93;74.10;98773.69;1733939;82;21423;-67
2021/09/19 04:26:16;;;;;;;2.72;1.72;;;;;;;13.93;74.21;98770.21;1734000;82;21340;-65
2021/09/19 04:28:42;;;;;;;2.02;1.55;;;;;;;13.97;74.11;98769.88;1733969;82;21501;-66
2021/09/19 04:31:09;;;;;;;3.52;1.87;;;;;;;13.99;74.07;98765.36;1733830;81;21005;-67
2021/09/19 04:33:37;;;;;;;5.53;1.90;;;;;;;14.00;73.81;98770.16;1733899;81;21400;-66
2021/09/19 04:36:06;;;;;;;5.78;1.95;;;;;;;13.95;74.15;98772.27;1733396;82;21605;-66
2021/09/19 04:38:32;;;;;;;6.53;1.82;;;;;;;13.97;74.67;98766.39;1733430;82;21537;-65
2021/09/19 04:40:59;;;;;;;4.37;2.08;;;;;;;14.04;74.93;98774.27;1734071;81;21443;-67
2021/09/19 04:43:26;;;;;;;3.40;2.12;;;;;;;14.07;74.93;98765.27;1734086;82;21491;-65
2021/09/19 04:45:53;;;;;;;2.90;2.13;;;;;;;14.04;75.01;98763.69;1703258;83;21045;-65
2021/09/19 04:48:19;;;;;;;3.25;2.00;;;;;;;14.00;74.93;98767.03;1703129;83;21835;-65
2021/09/19 04:50:46;;;;;;;2.17;1.90;;;;;;;14.00;75.16;98768.83;1703060;83;21616;-66
2021/09/19 04:53:13;;;;;;;6.12;2.27;;;;;;;14.06;75.20;98763.59;1702821;83;21718;-66
2021/09/19 04:55:39;;;;;;;3.15;2.45;;;;;;;14.08;75.18;98765.64;1703485;82;21675;-68
2021/09/19 04:58:07;;;;;;;3.37;1.92;;;;;;;14.04;74.99;98769.46;1704718;83;21439;-67
2021/09/19 05:00:33;;;;;;;3.90;2.05;;;;;;;13.98;75.09;98770.26;1714273;82;21474;-66
2021/09/19 05:03:00;;;;;;;4.17;2.20;;;;;;;14.01;75.36;98773.15;1734150;82;21443;-65
2021/09/19 05:05:27;;;;;;;4.30;1.95;;;;;;;14.07;75.21;98770.55;1734129;82;21435;-67
2021/09/19 05:07:53;;;;;;;5.47;2.10;;;;;;;14.10;75.08;98772.50;1733797;82;21551;-68
2021/09/19 05:10:20;;;;;;;2.80;2.27;;;;;;;14.07;75.06;98769.22;1734137;82;21436;-65
2021/09/19 05:12:48;;;;;;;1.90;1.45;;;;;;;14.04;75.13;98772.11;1734235;82;21791;-66
2021/09/19 05:15:15;;;;;;;3.00;1.85;;;;;;;14.06;75.41;98772.35;1733974;82;25460;-65
2021/09/19 05:17:45;;;;;;;1.85;1.75;;;;;;;14.14;75.28;98774.45;1733973;82;21518;-63
2021/09/19 05:20:13;;;;;;;6.35;2.20;;;;;;;14.20;75.23;98778.84;1731070;82;21640;-60
2021/09/19 05:22:40;;;;;;;6.67;2.33;;;;;;;14.18;75.16;98776.78;1734437;82;21410;-62
2021/09/19 05:25:08;;;;;;;2.95;2.40;;;;;;;14.19;75.13;98778.45;1731945;82;21666;-64
2021/09/19 05:27:36;;;;;;;2.77;2.00;;;;;;;14.21;75.38;98773.06;1729856;81;21521;-61
2021/09/19 05:30:05;;;;;;;5.35;2.27;;;;;;;14.27;75.50;98775.26;1734015;81;20951;-61
2021/09/19 05:32:32;;;;;;;4.83;2.50;;;;;;;14.33;75.49;98781.91;1733119;81;21518;-61
2021/09/19 05:34:59;;;;;;;3.10;2.42;;;;;;;14.33;75.39;98791.16;1724716;82;21451;-63
2021/09/19 05:37:25;;;;;;;5.42;2.62;;;;;;;14.28;75.45;98788.86;1711281;82;21793;-68
2021/09/19 05:39:53;;;;;;;2.80;2.45;;;;;;;14.30;75.68;98786.95;1705652;82;20967;-67
2021/09/19 05:42:20;;;;;;;5.43;2.43;;;;;;;14.37;75.61;98775.44;1733971;82;21076;-68
2021/09/19 05:44:47;;;;;;;2.95;2.22;;;;;;;14.36;75.50;98783.02;1733020;82;21011;-66
2021/09/19 05:47:13;;;;;;;2.42;2.22;;;;;;;14.32;75.50;98777.10;1732703;81;21576;-65
2021/09/19 05:49:40;;;;;;;2.85;2.20;;;;;;;14.30;75.62;98775.53;1722914;81;22008;-65
2021/09/19 05:52:09;;;;;;;2.45;2.25;;;;;;;14.32;75.84;98766.53;1707339;82;21500;-65
2021/09/19 05:54:35;;;;;;;2.47;2.25;;;;;;;14.39;75.70;98766.45;1733976;82;21546;-64
2021/09/19 05:57:03;;;;;;;2.27;2.07;;;;;;;14.44;75.69;98771.88;1734040;82;21526;-64
2021/09/19 05:59:30;;;;;;;4.78;2.42;;;;;;;14.41;75.54;98775.12;1732888;82;21431;-63
2021/09/19 06:01:56;;;;;;;2.83;1.98;;;;;;;14.37;75.45;98765.73;1733908;82;22009;-64
2021/09/19 06:04:23;;;;;;;2.95;2.00;;;;;;;14.39;75.84;98765.13;1703610;82;20976;-64
2021/09/19 06:06:49;;;;;;;3.83;1.92;;;;;;;14.44;75.81;98760.82;1714673;81;21555;-64
2021/09/19 06:09:17;;;;;;;3.17;1.70;;;;;;;14.46;75.56;98756.26;1730417;82;21475;-64
2021/09/19 06:11:45;;;;;;;3.05;1.75;;;;;;;14.46;75.72;98749.65;1733984;82;21467;-64
2021/09/19 06:14:12;;;;;;;2.45;1.60;;;;;;;14.43;75.83;98755.18;1726322;82;21555;-63
2021/09/19 06:16:39;;;;;;;1.60;1.50;;;;;;;14.44;76.08;98751.56;1726249;82;21435;-64
2021/09/19 06:19:07;;;;;;;2.00;1.50;;;;;;;14.53;75.94;98757.99;1734035;82;21439;-62
2021/09/19 06:21:34;;;;;;;3.00;1.70;;;;;;;14.55;75.69;98751.63;1732654;82;21547;-64
2021/09/19 06:24:03;;;;;;;2.27;1.87;;;;;;;14.54;75.79;98751.73;1723343;81;21558;-65
2021/09/19 06:26:30;;;;;;;1.47;1.37;;;;;;;14.52;76.04;98754.52;1723818;81;21733;-64
2021/09/19 06:28:58;;;;;;;2.50;1.57;;;;;;;14.57;76.65;98752.38;1738000;82;21424;-65
2021/09/19 06:31:25;;;;;;;1.87;1.53;;;;;;;14.71;76.89;98751.84;1724736;82;20962;-63
2021/09/19 06:33:54;;;;;;;1.95;1.50;;;;;;;14.76;76.14;98757.64;1733857;81;21458;-63
2021/09/19 06:36:21;;;;;;;2.03;1.67;;;;;;;14.73;75.81;98757.41;1733189;82;21590;-66
2021/09/19 06:38:48;;;;;;;1.53;1.43;;;;;;;14.73;75.72;98761.38;1731906;82;22108;-63
2021/09/19 06:41:15;;;;;;;4.25;1.95;;;;;;;14.74;75.67;98755.11;1733571;82;21020;-64
2021/09/19 06:43:42;;;;;;;3.10;2.20;;;;;;;14.84;75.52;98757.08;1727598;82;20963;-64
2021/09/19 06:46:08;;;;;;;2.35;2.12;;;;;;;14.85;75.31;98757.45;1724050;82;21726;-62
2021/09/19 06:48:35;;;;;;;2.65;1.90;;;;;;;14.79;75.23;98758.27;1726780;81;21506;-65
2021/09/19 06:51:02;;;;;;;1.90;1.80;;;;;;;14.75;75.12;98754.65;1724216;82;21435;-62
2021/09/19 06:53:29;;;;;;;2.72;2.00;;;;;;;14.76;75.28;98749.70;1734668;82;21416;-63
2021/09/19 06:55:55;;;;;;;3.02;1.77;;;;;;;14.83;75.30;98743.50;1727796;82;21435;-64
2021/09/19 06:58:23;;;;;;;1.62;1.52;;;;;;;14.87;75.46;98747.59;1722706;81;21559;-63
2021/09/19 07:00:51;;;;;;;2.15;1.77;;;;;;;14.86;75.65;98743.25;1723182;82;21543;-62
2021/09/19 07:03:17;;;;;;;3.12;2.10;;;;;;;14.83;75.71;98741.69;1728983;82;26986;-64
2021/09/19 07:05:44;;;;;;;2.72;1.85;;;;;;;14.88;76.05;98741.33;1738185;80;21057;-63
2021/09/19 07:08:11;;;;;;;2.70;2.30;;;;;;;15.00;76.45;98737.77;1741549;80;20982;-65
2021/09/19 07:10:38;;;;;;;3.98;2.20;;;;;;;15.10;76.89;98733.45;1733153;82;21495;-64
2021/09/19 07:13:04;;;;;;;4.50;2.58;;;;;;;15.14;76.80;98734.06;1725942;82;21471;-63
2021/09/19 07:15:31;;;;;;;7.58;2.17;;;;;;;15.19;76.84;98736.73;1725957;82;21839;-65
2021/09/19 07:17:58;;;;;;;3.08;2.20;;;;;;;15.27;76.85;98732.66;1731214;82;21487;-64
2021/09/19 07:20:25;;;;;;;4.70;2.67;;;;;;;15.41;77.26;98728.94;1733974;82;21562;-65
2021/09/19 07:22:51;;;;;;;3.83;3.25;;;;;;;15.53;77.30;98730.64;1734199;82;21440;-63
2021/09/19 07:25:20;;;;;;;3.75;3.22;;;;;;;15.58;76.65;98721.87;1733932;82;21420;-64
2021/09/19 07:27:47;;;;;;;7.60;3.00;;;;;;;15.65;76.62;98723.54;1732303;81;21774;-64
2021/09/19 07:30:15;;;;;;;2.90;2.70;;;;;;;15.74;76.73;98724.17;1725729;82;21536;-63
2021/09/19 07:32:43;;;;;;;4.03;3.30;;;;;;;15.84;76.55;98726.48;1733643;82;21460;-65
2021/09/19 07:35:10;;;;;;;3.05;2.77;;;;;;;15.92;76.20;98733.82;1738820;82;21498;-64
2021/09/19 07:37:36;;;;;;;4.15;3.15;;;;;;;15.95;75.80;98734.88;1742038;82;21467;-64
2021/09/19 07:40:05;;;;;;;4.53;3.50;;;;;;;15.96;75.17;98733.94;1742002;82;21912;-64
2021/09/19 07:45:17;;;;;;;4.03;3.67;;;;;;;16.08;75.73;98735.59;1786669;79;23233;-63
2021/09/19 07:47:44;;;;;;;4.60;3.70;;;;;;;16.12;75.51;98740.16;1746282;80;21432;-63
2021/09/19 07:50:13;;;;;;;4.42;4.03;;;;;;;16.16;75.20;98742.92;1716940;81;21774;-64
2021/09/19 07:52:40;;;;;;;4.53;4.15;;;;;;;16.17;75.03;98742.47;1746260;81;21471;-66
2021/09/19 07:55:07;;;;;;;6.03;4.58;;;;;;;16.15;74.69;98738.61;1744709;81;21454;-66
2021/09/19 07:57:34;;;;;;;4.20;3.80;;;;;;;16.14;74.72;98735.58;1748137;81;21444;-64
2021/09/19 08:00:01;;;;;;;5.08;4.17;;;;;;;16.19;74.76;98740.04;1746842;81;21451;-60
2021/09/19 08:02:28;;;;;;;4.35;3.83;;;;;;;16.27;74.87;98738.92;1744584;80;21868;-64
2021/09/19 08:04:55;;;;;;;4.90;4.33;;;;;;;16.30;74.61;98733.39;1747374;81;21467;-64
2021/09/19 08:07:21;;;;;;;5.25;3.77;;;;;;;16.29;74.49;98732.18;1747358;81;21506;-63
2021/09/19 08:09:50;;;;;;;4.70;4.12;;;;;;;16.25;74.31;98734.23;1745728;80;21618;-66
2021/09/19 08:12:17;;;;;;;4.80;4.35;;;;;;;16.24;74.26;98735.71;1741831;80;21452;-66
2021/09/19 08:14:43;;;;;;;9.98;3.90;;;;;;;16.28;74.58;98733.16;1760854;80;21819;-67
2021/09/19 08:17:10;;;;;;;7.60;3.77;;;;;;;16.34;74.24;98729.52;1773650;79;21544;-65
2021/09/19 08:19:38;;;;;;;;;;;;;;;16.40;74.14;98734.80;1753029;80;21004;-65
2021/09/19 08:22:04;;;;;;;4.60;4.20;;;;;;;16.37;73.93;98735.53;1746126;81;20430;-65
2021/09/19 08:24:32;;;;;;;6.60;4.35;;;;;;;16.31;73.78;98733.77;1746405;81;21552;-62
2021/09/19 08:26:59;;;;;;;4.30;3.65;;;;;;;16.29;74.37;98728.20;1745993;81;21861;-64
2021/09/19 08:29:26;;;;;;;5.83;4.47;;;;;;;16.33;74.54;98725.66;1746309;81;21445;-65
2021/09/19 08:31:55;;;;;;;5.03;4.37;;;;;;;16.35;74.53;98725.91;1766153;80;21411;-64
2021/09/19 08:34:23;;;;;;;6.53;4.65;;;;;;;16.29;74.43;98721.11;1768409;80;21444;-63
2021/09/19 08:36:50;;;;;;;4.80;4.05;;;;;;;16.27;74.52;98720.36;1753081;79;21535;-64
2021/09/19 08:39:17;;;;;;;5.92;4.22;;;;;;;16.29;75.39;98720.25;1745997;81;21924;-64
2021/09/19 08:41:49;;;;;;;4.85;4.45;;;;;;;16.39;75.58;98715.03;1737331;81;21700;-63
2021/09/19 08:44:13;;;;;;;5.15;4.75;;;;;;;16.44;75.45;98716.83;1678670;84;20943;-65
2021/09/19 08:46:40;;;;;;;5.35;4.90;;;;;;;16.43;75.40;98719.14;1691323;84;20994;-65
2021/09/19 08:49:07;;;;;;;6.90;5.08;;;;;;;16.45;75.59;98715.38;1724361;82;21404;-64
2021/09/19 08:51:34;;;;;;;9.08;4.12;;;;;;;16.48;75.82;98715.14;1734645;81;23636;-64
2021/09/19 08:54:01;;;;;;;4.50;4.20;;;;;;;16.58;76.00;98711.24;1715124;80;21617;-64
2021/09/19 08:56:28;;;;;;;8.30;4.83;;;;;;;16.63;75.72;98709.06;1701529;82;21507;-64
2021/09/19 08:58:54;;;;;;;4.53;4.08;;;;;;;16.63;75.29;98703.75;1701236;83;21544;-64
2021/09/19 09:01:22;;;;;;;5.35;4.85;;;;;;;16.62;75.39;98710.02;1708650;82;21554;-65
2021/09/19 09:03:49;;;;;;;;;;;;;;;16.64;75.77;98702.77;1701067;83;21822;-64
2021/09/19 09:06:19;;;;;;;4.62;4.22;;;;;;;16.72;75.87;98695.00;1668627;84;20434;-64
2021/09/19 09:08:47;;;;;;;7.03;4.65;;;;;;;16.78;75.73;98697.63;1691132;83;21471;-66
2021/09/19 09:11:14;;;;;;;5.95;4.75;;;;;;;16.81;75.80;98691.24;1696576;84;21464;-65
2021/09/19 09:13:43;;;;;;;5.75;4.65;;;;;;;16.86;76.24;98697.05;1698365;84;20999;-64
2021/09/19 09:16:15;;;;;;;4.87;4.47;;;;;;;16.98;76.57;98693.84;1698645;83;22074;-64
2021/09/19 09:18:52;;;;;;;8.00;4.35;;;;;;;17.13;76.88;98689.87;1698187;83;21420;-62
2021/09/19 09:21:24;;;;;;;5.55;5.03;;;;;;;17.27;76.24;98692.67;1697982;83;21561;-64
2021/09/19 09:24:00;;;;;;;5.25;4.75;;;;;;;17.35;75.86;98689.36;1698231;83;21508;-62
2021/09/19 09:26:33;;;;;;;4.47;4.17;;;;;;;17.40;75.67;98685.33;1696349;83;21554;-64
2021/09/19 09:29:06;;;;;;;4.42;4.10;;;;;;;17.48;75.45;98680.71;1670003;85;22230;-64
2021/09/19 09:31:38;;;;;;;4.87;4.47;;;;;;;17.59;74.82;98673.11;1704418;83;21724;-64
2021/09/19 09:34:23;;;;;;;4.47;4.10;;;;;;;17.67;74.17;98678.62;1708787;82;21539;-64
2021/09/19 09:37:00;;;;;;;7.12;5.22;;;;;;;17.67;73.52;98675.46;1698410;83;21463;-63
2021/09/19 09:39:35;;;;;;;5.75;5.10;;;;;;;17.68;72.78;98678.95;1698647;84;21442;-64
2021/09/19 09:42:09;;;;;;;3.85;3.45;;;;;;;17.66;72.58;98675.09;1698444;83;21724;-64
2021/09/19 09:44:48;;;;;;;3.15;2.95;;;;;;;17.68;72.16;98680.28;1738037;80;21602;-64
2021/09/19 09:47:23;;;;;;;3.67;3.40;;;;;;;17.76;70.33;98675.62;1739810;80;21787;-64
2021/09/19 09:49:53;;;;;;;3.55;2.95;;;;;;;17.81;69.39;98682.22;1738929;80;21633;-64
2021/09/19 09:52:29;;;;;;;3.22;2.92;;;;;;;17.83;68.47;98682.09;1739108;80;21535;-62
2021/09/19 09:55:03;;;;;;;5.50;3.30;;;;;;;17.75;66.48;98688.08;1717517;82;21785;-64
2021/09/19 09:57:56;;;;;;;3.20;3.00;;;;;;;17.61;65.05;98687.10;1721038;80;20994;-64
2021/09/19 10:00:23;;;;;;;3.80;3.20;;;;;;;17.53;64.69;98683.78;1675035;83;21492;-64
2021/09/19 10:02:51;;;;;;;4.20;3.80;;;;;;;17.34;64.38;98687.69;1676537;83;21512;-67
2021/09/19 10:05:19;;;;;;;4.62;3.70;;;;;;;17.16;64.07;98696.73;1703817;83;21589;-63
2021/09/19 10:07:48;;;;;;;3.52;3.33;;;;;;;17.03;64.52;98699.11;1705418;83;21633;-62
2021/09/19 10:10:18;;;;;;;3.50;3.30;;;;;;;16.88;65.43;98702.58;1706927;82;21491;-65
2021/09/19 10:12:46;;;;;;;4.62;3.00;;;;;;;16.84;66.12;98706.92;1724320;81;21529;-64
2021/09/19 10:15:15;;;;;;;4.47;4.00;;;;;;;16.84;66.36;98705.59;1693411;82;21448;-64
2021/09/19 10:17:43;;;;;;;4.40;4.00;;;;;;;16.82;66.78;98704.85;1711726;81;21530;-63
2021/09/19 10:20:26;;;;;;;3.70;3.40;;;;;;;16.85;67.49;98708.62;1692695;84;21509;-64
2021/09/19 10:23:17;;;;;;;6.97;3.40;;;;;;;16.86;67.80;98707.67;1688911;84;20956;-63
2021/09/19 10:26:00;;;;;;;2.58;2.37;;;;;;;16.86;68.31;98708.50;1693408;84;21461;-65
2021/09/19 10:28:42;;;;;;;2.12;2.00;;;;;;;16.96;67.54;98696.62;1693104;84;20971;-65
2021/09/19 10:31:15;;;;;;;2.20;2.00;;;;;;;16.90;67.23;98709.09;1685879;84;21639;-65
2021/09/19 10:33:56;;;;;;;1.47;1.47;;;;;;;16.82;66.37;98704.85;1681676;83;21477;-65
2021/09/19 10:36:45;;;;;;;1.37;1.27;;;;;;;16.73;66.46;98714.44;1686399;82;21537;-63
2021/09/19 10:39:30;;;;;;;2.08;1.50;;;;;;;16.64;66.44;98717.36;1693801;82;21490;-65
2021/09/19 10:42:38;;;;;;;2.67;0.98;;;;;;;16.57;66.76;98721.48;1712003;82;21553;-64
2021/09/19 10:45:08;;;;;;;0.68;0.68;;;;;;;16.55;67.14;98721.61;1699724;82;21493;-65
2021/09/19 10:47:43;;;;;;;2.27;1.20;;;;;;;16.70;66.25;98719.50;1720636;81;22192;-66
2021/09/19 10:50:25;;;;;;;3.22;0.50;;;;;;;16.62;66.08;98732.58;1699594;82;21622;-64
2021/09/19 10:52:58;;;;;;;0.80;0.80;;;;;;;16.47;65.87;98724.55;1733051;81;21451;-63
2021/09/19 10:55:30;;;;;;;0.98;0.53;;;;;;;16.31;65.65;98725.80;1727669;81;21407;-62
2021/09/19 10:58:05;;;;;;;0.60;0.60;;;;;;;16.23;66.00;98725.56;1732714;82;21070;-63
2021/09/19 11:00:34;;;;;;;0.62;0.62;;;;;;;16.17;66.05;98733.19;1734075;82;21820;-62
2021/09/19 11:03:12;;;;;;;0.57;0.50;;;;;;;16.17;67.20;98730.53;1733923;81;21551;-63
2021/09/19 11:05:49;;;;;;;2.45;0.60;;;;;;;16.20;67.43;98737.77;1733815;81;21661;-63
2021/09/19 11:08:25;;;;;;;0.57;0.57;;;;;;;16.19;66.64;98730.76;1697731;84;20947;-63
2021/09/19 11:11:02;;;;;;;0.40;0.40;;;;;;;16.11;66.28;98738.00;1732166;81;21373;-63
2021/09/19 11:13:45;;;;;;;1.15;0.50;;;;;;;16.09;66.52;98735.13;1706789;81;21850;-63
2021/09/19 11:16:23;;;;;;;0.40;0.40;;;;;;;16.07;65.87;98734.41;1733159;82;21539;-62
2021/09/19 11:18:56;;;;;;;0.50;0.50;;;;;;;15.94;65.36;98732.72;1734002;82;21440;-63
2021/09/19 11:21:32;;;;;;;0.40;0.40;;;;;;;15.89;65.15;98733.56;1733790;81;21429;-65
2021/09/19 11:24:13;;;;;;;1.35;0.47;;;;;;;15.81;65.73;98733.83;1733542;80;21483;-64
2021/09/19 11:26:51;;;;;;;0.47;0.30;;;;;;;15.82;66.11;98737.66;1732737;81;21546;-63
2021/09/19 11:29:24;;;;;;;2.20;0.62;;;;;;;15.83;65.20;98735.87;1704654;82;21431;-64
2021/09/19 11:31:51;;;;;;;0.80;0.65;;;;;;;15.79;65.00;98742.38;1670015;84;21447;-63
2021/09/19 11:34:21;;;;;;;0.37;0.35;;;;;;;15.74;65.11;98733.45;1689175;82;21439;-63
2021/09/19 11:36:52;;;;;;;1.15;0.72;;;;;;;15.69;65.54;98738.23;1698361;82;21443;-67
2021/09/19 11:39:20;;;;;;;0.60;0.60;;;;;;;15.64;65.80;98738.60;1698470;84;21826;-67
2021/09/19 11:41:48;;;;;;;0.42;0.40;;;;;;;15.51;66.15;98736.06;1698593;82;21518;-66
2021/09/19 11:44:16;;;;;;;0.60;0.50;;;;;;;15.44;66.77;98731.36;1693799;82;21546;-64
2021/09/19 11:46:48;;;;;;;0.53;0.50;;;;;;;15.47;66.59;98739.08;1680296;82;21669;-69